sensor_id;sensor_type;location;lat;lon;timestamp;P1;P2;P0
29460;PMS7003;16428;47.836;35.106;2023-05-21T00:02:17;24.00;21.00;15.00
29460;PMS7003;16428;47.836;35.106;2023-05-21T00:04:46;17.00;14.75;10.00
29460;PMS7003;16428;47.836;35.106;2023-05-21T00:07:13;15.25;14.75;12.75
29460;PMS7003;16428;47.836;35.106;2023-05-21T00:09:41;19.75;13.25;8.75
29460;PMS7003;16428;47.836;35.106;2023-05-21T00:12:09;13.75;13.75;12.00
29460;PMS7003;16428;47.836;35.106;2023-05-21T00:14:37;19.25;17.25;13.75
29460;PMS7003;16428;47.836;35.106;2023-05-21T00:17:04;19.25;17.50;13.75
29460;PMS7003;16428;47.836;35.106;2023-05-21T00:19:33;16.50;13.25;10.75
29460;PMS7003;16428;47.836;35.106;2023-05-21T00:22:02;17.75;17.25;14.50
29460;PMS7003;16428;47.836;35.106;2023-05-21T00:24:31;21.25;16.50;13.25
29460;PMS7003;16428;47.836;35.106;2023-05-21T00:26:59;16.50;16.50;13.25
29460;PMS7003;16428;47.836;35.106;2023-05-21T00:29:27;17.25;16.50;13.50
29460;PMS7003;16428;47.836;35.106;2023-05-21T00:31:56;17.50;16.25;12.25
29460;PMS7003;16428;47.836;35.106;2023-05-21T00:34:24;14.00;14.00;11.50
29460;PMS7003;16428;47.836;35.106;2023-05-21T00:36:52;13.50;13.00;10.00
29460;PMS7003;16428;47.836;35.106;2023-05-21T00:39:22;16.50;16.50;12.50
29460;PMS7003;16428;47.836;35.106;2023-05-21T00:41:49;11.00;9.50;7.50
29460;PMS7003;16428;47.836;35.106;2023-05-21T00:44:17;15.00;15.00;12.50
29460;PMS7003;16428;47.836;35.106;2023-05-21T00:46:45;16.00;14.25;12.25
29460;PMS7003;16428;47.836;35.106;2023-05-21T00:49:14;21.75;18.50;15.50
29460;PMS7003;16428;47.836;35.106;2023-05-21T00:51:43;16.75;16.75;13.00
29460;PMS7003;16428;47.836;35.106;2023-05-21T00:54:11;16.75;14.75;12.00
29460;PMS7003;16428;47.836;35.106;2023-05-21T00:56:39;18.00;17.50;15.00
29460;PMS7003;16428;47.836;35.106;2023-05-21T00:59:07;17.50;15.75;12.25
29460;PMS7003;16428;47.836;35.106;2023-05-21T01:01:35;18.00;16.75;14.00
29460;PMS7003;16428;47.836;35.106;2023-05-21T01:04:03;24.00;19.00;16.00
29460;PMS7003;16428;47.836;35.106;2023-05-21T01:06:31;24.00;22.00;16.00
29460;PMS7003;16428;47.836;35.106;2023-05-21T01:09:01;24.00;24.00;19.00
29460;PMS7003;16428;47.836;35.106;2023-05-21T01:11:36;22.75;18.00;14.50
29460;PMS7003;16428;47.836;35.106;2023-05-21T01:14:06;43.25;33.75;21.75
29460;PMS7003;16428;47.836;35.106;2023-05-21T01:16:37;35.75;31.75;23.00
29460;PMS7003;16428;47.836;35.106;2023-05-21T01:19:07;42.75;35.25;24.25
29460;PMS7003;16428;47.836;35.106;2023-05-21T01:21:39;39.00;31.00;22.25
29460;PMS7003;16428;47.836;35.106;2023-05-21T01:24:08;48.67;38.00;26.33
29460;PMS7003;16428;47.836;35.106;2023-05-21T01:26:36;35.75;32.25;23.00
29460;PMS7003;16428;47.836;35.106;2023-05-21T01:29:05;34.25;29.75;21.75
29460;PMS7003;16428;47.836;35.106;2023-05-21T01:31:36;38.25;29.00;19.75
29460;PMS7003;16428;47.836;35.106;2023-05-21T01:34:27;43.50;32.75;22.75
29460;PMS7003;16428;47.836;35.106;2023-05-21T01:37:03;27.00;27.00;19.00
29460;PMS7003;16428;47.836;35.106;2023-05-21T01:40:05;33.75;30.00;20.50
29460;PMS7003;16428;47.836;35.106;2023-05-21T01:42:38;26.50;24.25;19.25
29460;PMS7003;16428;47.836;35.106;2023-05-21T01:45:12;37.50;30.00;20.75
29460;PMS7003;16428;47.836;35.106;2023-05-21T01:47:43;31.75;29.75;20.75
29460;PMS7003;16428;47.836;35.106;2023-05-21T01:50:14;33.25;32.00;24.00
29460;PMS7003;16428;47.836;35.106;2023-05-21T01:52:51;32.50;26.50;20.25
29460;PMS7003;16428;47.836;35.106;2023-05-21T01:55:20;30.25;28.50;21.25
29460;PMS7003;16428;47.836;35.106;2023-05-21T01:57:51;28.00;28.00;20.00
29460;PMS7003;16428;47.836;35.106;2023-05-21T02:00:20;39.67;34.33;23.67
29460;PMS7003;16428;47.836;35.106;2023-05-21T02:02:48;41.50;35.75;24.00
29460;PMS7003;16428;47.836;35.106;2023-05-21T02:05:17;48.33;34.33;24.67
29460;PMS7003;16428;47.836;35.106;2023-05-21T02:07:44;44.33;34.67;23.00
29460;PMS7003;16428;47.836;35.106;2023-05-21T02:10:13;57.00;42.67;28.00
29460;PMS7003;16428;47.836;35.106;2023-05-21T02:12:43;58.75;46.00;31.00
29460;PMS7003;16428;47.836;35.106;2023-05-21T02:15:11;58.00;46.25;30.25
29460;PMS7003;16428;47.836;35.106;2023-05-21T02:17:40;62.00;49.00;33.00
29460;PMS7003;16428;47.836;35.106;2023-05-21T02:20:08;74.25;50.75;32.75
29460;PMS7003;16428;47.836;35.106;2023-05-21T02:22:40;62.00;48.50;32.25
29460;PMS7003;16428;47.836;35.106;2023-05-21T02:25:09;57.75;46.00;31.00
29460;PMS7003;16428;47.836;35.106;2023-05-21T02:27:38;64.50;49.50;32.50
29460;PMS7003;16428;47.836;35.106;2023-05-21T02:30:11;64.75;50.25;33.75
29460;PMS7003;16428;47.836;35.106;2023-05-21T02:32:41;57.00;41.25;24.00
29460;PMS7003;16428;47.836;35.106;2023-05-21T02:35:10;69.25;51.50;34.00
29460;PMS7003;16428;47.836;35.106;2023-05-21T02:37:39;65.75;51.50;34.00
29460;PMS7003;16428;47.836;35.106;2023-05-21T02:40:07;71.00;53.75;35.00
29460;PMS7003;16428;47.836;35.106;2023-05-21T02:42:37;68.00;52.75;35.00
29460;PMS7003;16428;47.836;35.106;2023-05-21T02:45:06;62.25;47.50;30.75
29460;PMS7003;16428;47.836;35.106;2023-05-21T02:47:35;57.00;44.50;28.50
29460;PMS7003;16428;47.836;35.106;2023-05-21T02:50:04;62.00;46.50;33.00
29460;PMS7003;16428;47.836;35.106;2023-05-21T02:52:35;54.50;43.50;29.75
29460;PMS7003;16428;47.836;35.106;2023-05-21T02:55:02;54.50;42.50;30.50
29460;PMS7003;16428;47.836;35.106;2023-05-21T02:57:30;57.75;44.75;30.00
29460;PMS7003;16428;47.836;35.106;2023-05-21T02:59:57;54.50;45.25;30.50
29460;PMS7003;16428;47.836;35.106;2023-05-21T03:02:25;63.00;48.50;32.00
29460;PMS7003;16428;47.836;35.106;2023-05-21T03:04:53;62.75;49.25;33.25
29460;PMS7003;16428;47.836;35.106;2023-05-21T03:07:20;59.25;44.50;32.50
29460;PMS7003;16428;47.836;35.106;2023-05-21T03:09:48;57.75;47.00;31.50
29460;PMS7003;16428;47.836;35.106;2023-05-21T03:12:15;55.75;44.50;26.00
29460;PMS7003;16428;47.836;35.106;2023-05-21T03:14:43;56.50;43.50;29.25
29460;PMS7003;16428;47.836;35.106;2023-05-21T03:17:12;51.75;39.50;26.25
29460;PMS7003;16428;47.836;35.106;2023-05-21T03:19:41;55.25;42.75;29.25
29460;PMS7003;16428;47.836;35.106;2023-05-21T03:22:09;57.50;44.75;29.25
29460;PMS7003;16428;47.836;35.106;2023-05-21T03:24:37;50.67;40.67;28.33
29460;PMS7003;16428;47.836;35.106;2023-05-21T03:27:06;54.00;44.00;30.00
29460;PMS7003;16428;47.836;35.106;2023-05-21T03:29:34;59.50;46.00;30.50
29460;PMS7003;16428;47.836;35.106;2023-05-21T03:32:02;55.67;45.33;30.67
29460;PMS7003;16428;47.836;35.106;2023-05-21T03:34:30;59.00;45.75;30.25
29460;PMS7003;16428;47.836;35.106;2023-05-21T03:37:00;53.67;44.67;27.67
29460;PMS7003;16428;47.836;35.106;2023-05-21T03:39:28;60.75;44.75;31.25
29460;PMS7003;16428;47.836;35.106;2023-05-21T03:41:55;56.33;44.00;28.00
29460;PMS7003;16428;47.836;35.106;2023-05-21T03:44:23;60.75;45.25;28.75
29460;PMS7003;16428;47.836;35.106;2023-05-21T03:46:51;61.50;45.25;30.25
29460;PMS7003;16428;47.836;35.106;2023-05-21T03:49:19;62.25;45.75;31.00
29460;PMS7003;16428;47.836;35.106;2023-05-21T03:51:46;61.50;46.25;32.00
29460;PMS7003;16428;47.836;35.106;2023-05-21T03:54:14;57.00;44.00;28.25
29460;PMS7003;16428;47.836;35.106;2023-05-21T03:56:41;61.67;46.33;29.67
29460;PMS7003;16428;47.836;35.106;2023-05-21T03:59:09;59.67;46.00;31.00
29460;PMS7003;16428;47.836;35.106;2023-05-21T04:01:36;56.33;43.33;28.00
29460;PMS7003;16428;47.836;35.106;2023-05-21T04:04:05;61.00;43.67;30.33
29460;PMS7003;16428;47.836;35.106;2023-05-21T04:06:32;52.00;42.67;27.67
29460;PMS7003;16428;47.836;35.106;2023-05-21T04:09:00;55.00;40.67;25.33
29460;PMS7003;16428;47.836;35.106;2023-05-21T04:11:28;62.25;45.00;29.75
29460;PMS7003;16428;47.836;35.106;2023-05-21T04:13:55;56.33;43.33;28.33
29460;PMS7003;16428;47.836;35.106;2023-05-21T04:16:23;58.67;45.67;29.67
29460;PMS7003;16428;47.836;35.106;2023-05-21T04:18:51;59.67;45.33;30.33
29460;PMS7003;16428;47.836;35.106;2023-05-21T04:21:21;53.00;43.33;29.00
29460;PMS7003;16428;47.836;35.106;2023-05-21T04:23:49;62.67;47.33;30.33
29460;PMS7003;16428;47.836;35.106;2023-05-21T04:26:16;60.33;46.33;29.33
29460;PMS7003;16428;47.836;35.106;2023-05-21T04:28:44;61.67;45.33;30.33
29460;PMS7003;16428;47.836;35.106;2023-05-21T04:31:11;56.67;45.00;29.33
29460;PMS7003;16428;47.836;35.106;2023-05-21T04:33:39;61.33;46.33;30.33
29460;PMS7003;16428;47.836;35.106;2023-05-21T04:36:12;57.67;42.33;28.00
29460;PMS7003;16428;47.836;35.106;2023-05-21T04:38:39;49.25;39.75;26.25
29460;PMS7003;16428;47.836;35.106;2023-05-21T04:41:08;58.00;43.50;28.75
29460;PMS7003;16428;47.836;35.106;2023-05-21T04:43:37;57.00;44.00;29.00
29460;PMS7003;16428;47.836;35.106;2023-05-21T04:46:04;62.50;47.00;30.75
29460;PMS7003;16428;47.836;35.106;2023-05-21T04:48:33;54.00;43.50;28.50
29460;PMS7003;16428;47.836;35.106;2023-05-21T04:51:01;60.33;47.33;30.00
29460;PMS7003;16428;47.836;35.106;2023-05-21T04:53:33;55.00;43.00;30.00
29460;PMS7003;16428;47.836;35.106;2023-05-21T04:56:01;54.00;40.00;24.67
29460;PMS7003;16428;47.836;35.106;2023-05-21T04:58:29;50.33;41.67;30.00
29460;PMS7003;16428;47.836;35.106;2023-05-21T05:00:58;53.75;42.00;29.00
29460;PMS7003;16428;47.836;35.106;2023-05-21T05:03:29;51.25;40.25;27.00
29460;PMS7003;16428;47.836;35.106;2023-05-21T05:05:56;48.25;37.50;26.00
29460;PMS7003;16428;47.836;35.106;2023-05-21T05:08:24;43.75;35.50;25.25
29460;PMS7003;16428;47.836;35.106;2023-05-21T05:10:52;41.25;35.25;25.25
29460;PMS7003;16428;47.836;35.106;2023-05-21T05:13:19;35.75;31.75;21.50
29460;PMS7003;16428;47.836;35.106;2023-05-21T05:15:47;54.75;43.50;27.75
29460;PMS7003;16428;47.836;35.106;2023-05-21T05:18:16;48.00;38.25;26.00
29460;PMS7003;16428;47.836;35.106;2023-05-21T05:20:44;49.25;38.75;27.00
29460;PMS7003;16428;47.836;35.106;2023-05-21T05:23:14;46.00;36.50;25.00
29460;PMS7003;16428;47.836;35.106;2023-05-21T05:25:43;50.75;40.50;27.50
29460;PMS7003;16428;47.836;35.106;2023-05-21T05:28:11;53.00;41.50;27.00
29460;PMS7003;16428;47.836;35.106;2023-05-21T05:30:39;48.25;40.25;27.00
29460;PMS7003;16428;47.836;35.106;2023-05-21T05:33:06;49.00;39.25;25.50
29460;PMS7003;16428;47.836;35.106;2023-05-21T05:35:34;51.50;42.00;27.00
29460;PMS7003;16428;47.836;35.106;2023-05-21T05:38:02;49.25;40.00;25.25
29460;PMS7003;16428;47.836;35.106;2023-05-21T05:40:30;32.25;27.75;18.50
29460;PMS7003;16428;47.836;35.106;2023-05-21T05:42:57;30.50;29.50;22.00
29460;PMS7003;16428;47.836;35.106;2023-05-21T05:45:25;27.25;25.00;19.25
29460;PMS7003;16428;47.836;35.106;2023-05-21T05:47:52;30.50;29.25;21.50
29460;PMS7003;16428;47.836;35.106;2023-05-21T05:50:20;31.75;29.00;20.25
29460;PMS7003;16428;47.836;35.106;2023-05-21T05:52:48;32.25;25.00;17.50
29460;PMS7003;16428;47.836;35.106;2023-05-21T05:55:15;29.75;27.00;20.00
29460;PMS7003;16428;47.836;35.106;2023-05-21T05:57:43;27.25;25.50;19.50
29460;PMS7003;16428;47.836;35.106;2023-05-21T06:00:11;33.00;27.75;21.00
29460;PMS7003;16428;47.836;35.106;2023-05-21T06:02:39;29.25;26.25;18.25
29460;PMS7003;16428;47.836;35.106;2023-05-21T06:05:07;17.20;17.00;13.80
29460;PMS7003;16428;47.836;35.106;2023-05-21T06:07:37;13.20;13.00;11.00
29460;PMS7003;16428;47.836;35.106;2023-05-21T06:10:07;17.40;13.20;11.20
29460;PMS7003;16428;47.836;35.106;2023-05-21T06:12:36;15.80;12.40;10.60
29460;PMS7003;16428;47.836;35.106;2023-05-21T06:15:03;12.20;12.20;9.40
29460;PMS7003;16428;47.836;35.106;2023-05-21T06:17:32;22.00;17.40;13.60
29460;PMS7003;16428;47.836;35.106;2023-05-21T06:19:59;13.20;12.80;10.00
29460;PMS7003;16428;47.836;35.106;2023-05-21T06:22:27;13.60;12.40;10.60
29460;PMS7003;16428;47.836;35.106;2023-05-21T06:24:54;18.00;16.00;12.80
29460;PMS7003;16428;47.836;35.106;2023-05-21T06:27:22;14.40;13.40;11.60
29460;PMS7003;16428;47.836;35.106;2023-05-21T06:29:50;11.20;11.20;10.00
29460;PMS7003;16428;47.836;35.106;2023-05-21T06:32:17;7.60;3.20;1.00
29460;PMS7003;16428;47.836;35.106;2023-05-21T06:34:47;20.80;16.00;11.80
29460;PMS7003;16428;47.836;35.106;2023-05-21T06:37:17;14.80;14.80;12.20
29460;PMS7003;16428;47.836;35.106;2023-05-21T06:39:46;19.60;18.60;16.20
29460;PMS7003;16428;47.836;35.106;2023-05-21T06:42:15;10.40;7.80;5.20
29460;PMS7003;16428;47.836;35.106;2023-05-21T06:44:43;21.40;12.60;7.80
29460;PMS7003;16428;47.836;35.106;2023-05-21T06:47:10;9.20;9.20;8.20
29460;PMS7003;16428;47.836;35.106;2023-05-21T06:49:38;15.00;11.00;8.80
29460;PMS7003;16428;47.836;35.106;2023-05-21T06:52:05;14.80;13.20;10.80
29460;PMS7003;16428;47.836;35.106;2023-05-21T06:54:33;19.20;17.00;14.40
29460;PMS7003;16428;47.836;35.106;2023-05-21T06:57:00;19.40;19.20;16.20
29460;PMS7003;16428;47.836;35.106;2023-05-21T06:59:28;27.80;23.80;18.20
29460;PMS7003;16428;47.836;35.106;2023-05-21T07:01:55;25.20;22.00;15.00
29460;PMS7003;16428;47.836;35.106;2023-05-21T07:04:23;28.20;27.20;18.60
29460;PMS7003;16428;47.836;35.106;2023-05-21T07:06:51;29.40;24.80;17.00
29460;PMS7003;16428;47.836;35.106;2023-05-21T07:09:19;15.20;15.20;11.40
29460;PMS7003;16428;47.836;35.106;2023-05-21T07:11:47;16.00;13.00;11.40
29460;PMS7003;16428;47.836;35.106;2023-05-21T07:14:14;15.00;15.00;11.00
29460;PMS7003;16428;47.836;35.106;2023-05-21T07:16:42;18.20;16.40;12.40
29460;PMS7003;16428;47.836;35.106;2023-05-21T07:19:09;16.00;10.20;9.60
29460;PMS7003;16428;47.836;35.106;2023-05-21T07:21:37;12.60;10.60;9.40
29460;PMS7003;16428;47.836;35.106;2023-05-21T07:24:04;11.20;11.20;9.00
29460;PMS7003;16428;47.836;35.106;2023-05-21T07:26:32;23.60;20.60;16.00
29460;PMS7003;16428;47.836;35.106;2023-05-21T07:28:59;19.80;18.40;14.60
29460;PMS7003;16428;47.836;35.106;2023-05-21T07:31:27;18.40;17.40;13.40
29460;PMS7003;16428;47.836;35.106;2023-05-21T07:33:55;18.00;16.80;10.80
29460;PMS7003;16428;47.836;35.106;2023-05-21T07:36:22;15.00;12.60;10.40
29460;PMS7003;16428;47.836;35.106;2023-05-21T07:38:50;18.60;17.40;13.00
29460;PMS7003;16428;47.836;35.106;2023-05-21T07:41:17;18.00;16.00;13.60
29460;PMS7003;16428;47.836;35.106;2023-05-21T07:43:45;14.60;14.60;11.00
29460;PMS7003;16428;47.836;35.106;2023-05-21T07:46:12;23.00;20.40;16.40
29460;PMS7003;16428;47.836;35.106;2023-05-21T07:48:40;20.60;15.80;11.60
29460;PMS7003;16428;47.836;35.106;2023-05-21T07:51:07;16.20;13.80;12.00
29460;PMS7003;16428;47.836;35.106;2023-05-21T07:53:35;13.60;11.60;10.00
29460;PMS7003;16428;47.836;35.106;2023-05-21T07:56:02;13.20;12.20;8.80
29460;PMS7003;16428;47.836;35.106;2023-05-21T07:58:30;15.20;11.80;9.40
29460;PMS7003;16428;47.836;35.106;2023-05-21T08:00:58;11.00;11.00;10.40
29460;PMS7003;16428;47.836;35.106;2023-05-21T08:03:26;11.00;11.00;9.20
29460;PMS7003;16428;47.836;35.106;2023-05-21T08:05:57;17.40;17.40;14.20
29460;PMS7003;16428;47.836;35.106;2023-05-21T08:08:25;11.60;10.60;9.40
29460;PMS7003;16428;47.836;35.106;2023-05-21T08:10:52;12.40;12.40;10.00
29460;PMS7003;16428;47.836;35.106;2023-05-21T08:13:20;11.80;11.00;9.40
29460;PMS7003;16428;47.836;35.106;2023-05-21T08:15:48;12.00;11.20;9.40
29460;PMS7003;16428;47.836;35.106;2023-05-21T08:18:19;10.00;9.20;7.20
29460;PMS7003;16428;47.836;35.106;2023-05-21T08:20:46;9.00;8.80;7.00
29460;PMS7003;16428;47.836;35.106;2023-05-21T08:23:14;8.60;8.00;6.00
29460;PMS7003;16428;47.836;35.106;2023-05-21T08:25:42;11.60;10.00;9.00
29460;PMS7003;16428;47.836;35.106;2023-05-21T08:28:09;1.60;0.00;0.00
29460;PMS7003;16428;47.836;35.106;2023-05-21T08:30:37;12.40;12.40;9.60
29460;PMS7003;16428;47.836;35.106;2023-05-21T08:33:05;10.00;10.00;9.00
29460;PMS7003;16428;47.836;35.106;2023-05-21T08:35:32;12.40;8.40;7.40
29460;PMS7003;16428;47.836;35.106;2023-05-21T08:38:00;10.80;9.40;7.60
29460;PMS7003;16428;47.836;35.106;2023-05-21T08:40:28;14.20;12.00;10.40
29460;PMS7003;16428;47.836;35.106;2023-05-21T08:42:56;14.00;13.40;11.00
29460;PMS7003;16428;47.836;35.106;2023-05-21T08:45:24;11.00;11.00;9.60
29460;PMS7003;16428;47.836;35.106;2023-05-21T08:47:55;15.00;15.00;11.80
29460;PMS7003;16428;47.836;35.106;2023-05-21T08:50:27;10.00;8.20;6.60
29460;PMS7003;16428;47.836;35.106;2023-05-21T08:52:57;8.00;8.00;7.00
29460;PMS7003;16428;47.836;35.106;2023-05-21T08:55:27;13.00;13.00;11.00
29460;PMS7003;16428;47.836;35.106;2023-05-21T08:57:55;13.60;11.20;9.80
29460;PMS7003;16428;47.836;35.106;2023-05-21T09:00:23;11.80;11.80;10.00
29460;PMS7003;16428;47.836;35.106;2023-05-21T09:02:50;12.40;10.80;8.40
29460;PMS7003;16428;47.836;35.106;2023-05-21T09:05:20;9.20;9.20;6.40
29460;PMS7003;16428;47.836;35.106;2023-05-21T09:10:53;7.00;7.00;6.00
29460;PMS7003;16428;47.836;35.106;2023-05-21T09:13:21;9.20;7.20;6.40
29460;PMS7003;16428;47.836;35.106;2023-05-21T09:15:51;4.60;4.60;3.80
29460;PMS7003;16428;47.836;35.106;2023-05-21T09:18:19;7.20;7.20;6.20
29460;PMS7003;16428;47.836;35.106;2023-05-21T09:20:47;8.80;8.80;7.00
29460;PMS7003;16428;47.836;35.106;2023-05-21T09:23:16;9.00;5.00;5.00
29460;PMS7003;16428;47.836;35.106;2023-05-21T09:25:44;12.00;8.00;7.40
29460;PMS7003;16428;47.836;35.106;2023-05-21T09:28:13;6.60;6.60;5.40
29460;PMS7003;16428;47.836;35.106;2023-05-21T09:33:25;7.80;7.80;7.00
29460;PMS7003;16428;47.836;35.106;2023-05-21T09:35:55;7.20;6.80;6.20
29460;PMS7003;16428;47.836;35.106;2023-05-21T09:38:23;7.20;5.40;4.80
29460;PMS7003;16428;47.836;35.106;2023-05-21T09:40:53;6.00;6.00;4.80
29460;PMS7003;16428;47.836;35.106;2023-05-21T09:43:22;8.80;6.40;6.00
29460;PMS7003;16428;47.836;35.106;2023-05-21T09:45:54;6.20;6.20;5.00
29460;PMS7003;16428;47.836;35.106;2023-05-21T09:51:08;7.00;7.00;6.00
29460;PMS7003;16428;47.836;35.106;2023-05-21T09:56:25;6.60;6.40;5.80
29460;PMS7003;16428;47.836;35.106;2023-05-21T09:58:56;9.20;8.00;6.40
29460;PMS7003;16428;47.836;35.106;2023-05-21T10:01:26;10.00;10.00;8.60
29460;PMS7003;16428;47.836;35.106;2023-05-21T10:03:57;7.00;6.00;5.00
29460;PMS7003;16428;47.836;35.106;2023-05-21T10:06:29;7.20;7.20;6.20
29460;PMS7003;16428;47.836;35.106;2023-05-21T10:08:59;9.60;8.40;5.00
29460;PMS7003;16428;47.836;35.106;2023-05-21T10:11:32;6.60;6.60;5.60
29460;PMS7003;16428;47.836;35.106;2023-05-21T10:14:05;8.20;6.00;5.00
29460;PMS7003;16428;47.836;35.106;2023-05-21T10:16:36;13.00;10.20;8.60
29460;PMS7003;16428;47.836;35.106;2023-05-21T10:19:04;20.80;20.80;15.80
29460;PMS7003;16428;47.836;35.106;2023-05-21T10:21:37;8.00;8.00;6.60
29460;PMS7003;16428;47.836;35.106;2023-05-21T10:24:06;9.40;7.60;7.00
29460;PMS7003;16428;47.836;35.106;2023-05-21T10:26:34;11.00;10.60;8.00
29460;PMS7003;16428;47.836;35.106;2023-05-21T10:29:02;8.20;8.20;6.60
29460;PMS7003;16428;47.836;35.106;2023-05-21T10:31:31;7.00;7.00;5.00
29460;PMS7003;16428;47.836;35.106;2023-05-21T10:33:59;20.20;19.20;14.40
29460;PMS7003;16428;47.836;35.106;2023-05-21T10:36:28;8.40;8.40;7.40
29460;PMS7003;16428;47.836;35.106;2023-05-21T10:38:59;7.00;7.00;6.00
29460;PMS7003;16428;47.836;35.106;2023-05-21T10:41:31;7.20;7.00;6.20
29460;PMS7003;16428;47.836;35.106;2023-05-21T10:44:32;12.60;10.40;8.80
29460;PMS7003;16428;47.836;35.106;2023-05-21T10:47:10;14.00;14.00;11.40
29460;PMS7003;16428;47.836;35.106;2023-05-21T10:56:05;16.60;15.40;11.00
29460;PMS7003;16428;47.836;35.106;2023-05-21T11:01:48;13.40;13.40;9.20
29460;PMS7003;16428;47.836;35.106;2023-05-21T11:04:26;15.60;15.60;11.80
29460;PMS7003;16428;47.836;35.106;2023-05-21T11:06:55;20.60;19.20;16.80
29460;PMS7003;16428;47.836;35.106;2023-05-21T11:09:25;12.00;12.00;9.80
29460;PMS7003;16428;47.836;35.106;2023-05-21T11:11:56;15.40;15.40;12.00
29460;PMS7003;16428;47.836;35.106;2023-05-21T11:19:39;12.20;12.20;10.80
29460;PMS7003;16428;47.836;35.106;2023-05-21T11:22:09;9.20;9.20;8.00
29460;PMS7003;16428;47.836;35.106;2023-05-21T11:24:49;13.40;11.00;8.80
29460;PMS7003;16428;47.836;35.106;2023-05-21T11:27:36;13.80;11.40;9.40
29460;PMS7003;16428;47.836;35.106;2023-05-21T11:30:08;13.20;12.40;10.20
29460;PMS7003;16428;47.836;35.106;2023-05-21T11:35:37;15.40;12.40;10.00
29460;PMS7003;16428;47.836;35.106;2023-05-21T11:38:21;12.00;11.80;9.40
29460;PMS7003;16428;47.836;35.106;2023-05-21T11:40:49;10.40;10.40;9.40
29460;PMS7003;16428;47.836;35.106;2023-05-21T11:43:21;7.40;7.40;4.40
29460;PMS7003;16428;47.836;35.106;2023-05-21T11:45:48;13.40;13.00;9.80
29460;PMS7003;16428;47.836;35.106;2023-05-21T11:48:19;14.40;14.40;13.00
29460;PMS7003;16428;47.836;35.106;2023-05-21T11:50:53;12.40;12.40;9.20
29460;PMS7003;16428;47.836;35.106;2023-05-21T11:53:21;12.60;12.40;10.20
29460;PMS7003;16428;47.836;35.106;2023-05-21T11:55:49;11.60;9.00;7.00
29460;PMS7003;16428;47.836;35.106;2023-05-21T11:58:23;18.20;14.20;12.40
29460;PMS7003;16428;47.836;35.106;2023-05-21T12:00:51;17.20;15.20;12.20
29460;PMS7003;16428;47.836;35.106;2023-05-21T12:03:20;23.00;18.60;13.40
29460;PMS7003;16428;47.836;35.106;2023-05-21T12:05:53;17.00;15.20;12.60
29460;PMS7003;16428;47.836;35.106;2023-05-21T12:08:24;21.80;18.00;15.40
29460;PMS7003;16428;47.836;35.106;2023-05-21T12:10:56;15.80;15.80;11.80
29460;PMS7003;16428;47.836;35.106;2023-05-21T12:13:26;11.20;10.20;9.20
29460;PMS7003;16428;47.836;35.106;2023-05-21T12:15:54;14.00;12.80;10.60
29460;PMS7003;16428;47.836;35.106;2023-05-21T12:18:22;18.60;16.60;13.40
29460;PMS7003;16428;47.836;35.106;2023-05-21T12:20:52;14.80;12.40;8.40
29460;PMS7003;16428;47.836;35.106;2023-05-21T12:23:23;13.60;13.60;11.00
29460;PMS7003;16428;47.836;35.106;2023-05-21T12:25:51;12.40;12.40;10.00
29460;PMS7003;16428;47.836;35.106;2023-05-21T12:28:22;16.60;15.80;12.20
29460;PMS7003;16428;47.836;35.106;2023-05-21T12:30:50;14.00;12.60;10.40
29460;PMS7003;16428;47.836;35.106;2023-05-21T12:33:20;10.60;10.60;9.60
29460;PMS7003;16428;47.836;35.106;2023-05-21T12:35:51;8.80;8.80;7.20
29460;PMS7003;16428;47.836;35.106;2023-05-21T12:38:18;11.00;11.00;9.60
29460;PMS7003;16428;47.836;35.106;2023-05-21T12:40:46;12.60;8.00;7.60
29460;PMS7003;16428;47.836;35.106;2023-05-21T12:43:14;7.60;7.60;6.20
29460;PMS7003;16428;47.836;35.106;2023-05-21T12:45:41;6.40;6.40;5.20
29460;PMS7003;16428;47.836;35.106;2023-05-21T12:48:09;8.20;8.20;7.00
29460;PMS7003;16428;47.836;35.106;2023-05-21T12:50:38;3.00;3.00;2.00
29460;PMS7003;16428;47.836;35.106;2023-05-21T12:53:08;10.20;9.20;7.00
29460;PMS7003;16428;47.836;35.106;2023-05-21T12:55:38;8.60;8.60;7.20
29460;PMS7003;16428;47.836;35.106;2023-05-21T12:58:06;13.60;13.60;10.20
29460;PMS7003;16428;47.836;35.106;2023-05-21T13:00:35;28.60;28.60;21.00
29460;PMS7003;16428;47.836;35.106;2023-05-21T13:03:03;44.75;38.00;24.00
29460;PMS7003;16428;47.836;35.106;2023-05-21T13:05:33;28.25;24.25;18.50
29460;PMS7003;16428;47.836;35.106;2023-05-21T13:08:01;27.20;25.20;17.60
29460;PMS7003;16428;47.836;35.106;2023-05-21T13:10:29;19.60;18.60;15.60
29460;PMS7003;16428;47.836;35.106;2023-05-21T13:12:59;19.20;18.20;14.20
29460;PMS7003;16428;47.836;35.106;2023-05-21T13:15:28;18.25;17.75;15.50
29460;PMS7003;16428;47.836;35.106;2023-05-21T13:17:56;25.50;25.00;18.25
29460;PMS7003;16428;47.836;35.106;2023-05-21T13:20:23;25.00;23.25;17.00
29460;PMS7003;16428;47.836;35.106;2023-05-21T13:22:53;32.75;30.50;21.75
29460;PMS7003;16428;47.836;35.106;2023-05-21T13:25:22;34.00;30.00;22.25
29460;PMS7003;16428;47.836;35.106;2023-05-21T13:27:51;36.25;31.75;22.25
29460;PMS7003;16428;47.836;35.106;2023-05-21T13:30:20;40.75;32.00;21.75
29460;PMS7003;16428;47.836;35.106;2023-05-21T13:32:48;44.75;38.25;26.25
29460;PMS7003;16428;47.836;35.106;2023-05-21T13:35:16;42.00;34.75;24.50
29460;PMS7003;16428;47.836;35.106;2023-05-21T13:37:43;35.75;32.00;22.25
29460;PMS7003;16428;47.836;35.106;2023-05-21T13:40:13;48.00;38.50;27.75
29460;PMS7003;16428;47.836;35.106;2023-05-21T13:42:43;50.25;41.75;28.75
29460;PMS7003;16428;47.836;35.106;2023-05-21T13:45:12;45.75;38.25;27.25
29460;PMS7003;16428;47.836;35.106;2023-05-21T13:47:45;49.25;38.75;27.25
29460;PMS7003;16428;47.836;35.106;2023-05-21T13:50:14;32.25;31.25;23.00
29460;PMS7003;16428;47.836;35.106;2023-05-21T13:52:42;31.25;30.25;20.75
29460;PMS7003;16428;47.836;35.106;2023-05-21T13:55:09;25.50;25.50;19.50
29460;PMS7003;16428;47.836;35.106;2023-05-21T13:57:37;30.00;28.25;19.00
29460;PMS7003;16428;47.836;35.106;2023-05-21T14:00:06;25.75;23.50;19.50
29460;PMS7003;16428;47.836;35.106;2023-05-21T14:02:41;21.25;21.25;17.50
29460;PMS7003;16428;47.836;35.106;2023-05-21T14:05:11;18.25;18.25;16.25
29460;PMS7003;16428;47.836;35.106;2023-05-21T14:07:39;15.75;15.75;14.25
29460;PMS7003;16428;47.836;35.106;2023-05-21T14:10:08;17.75;17.75;14.50
29460;PMS7003;16428;47.836;35.106;2023-05-21T14:12:36;16.00;16.00;13.00
29460;PMS7003;16428;47.836;35.106;2023-05-21T14:15:04;12.00;11.25;9.25
29460;PMS7003;16428;47.836;35.106;2023-05-21T14:17:32;22.75;20.75;17.00
29460;PMS7003;16428;47.836;35.106;2023-05-21T14:20:00;19.50;18.25;12.50
29460;PMS7003;16428;47.836;35.106;2023-05-21T14:22:28;17.25;17.25;14.00